sensor_id;sensor_type;location;lat;lon;timestamp;P1;durP1;ratioP1;P2;durP2;ratioP2
55601;SDS011;59921;51.332;12.410;2022-08-19T00:01:36;4.57;;;3.63;;
55601;SDS011;59921;51.332;12.410;2022-08-19T00:04:03;5.60;;;3.30;;
55601;SDS011;59921;51.332;12.410;2022-08-19T00:06:30;5.53;;;3.53;;
55601;SDS011;59921;51.332;12.410;2022-08-19T00:08:56;4.85;;;3.30;;
55601;SDS011;59921;51.332;12.410;2022-08-19T00:11:25;4.55;;;3.25;;
55601;SDS011;59921;51.332;12.410;2022-08-19T00:13:53;4.95;;;3.25;;
55601;SDS011;59921;51.332;12.410;2022-08-19T00:16:20;5.55;;;3.60;;
55601;SDS011;59921;51.332;12.410;2022-08-19T00:18:46;5.65;;;3.50;;
55601;SDS011;59921;51.332;12.410;2022-08-19T00:21:12;4.53;;;3.15;;
55601;SDS011;59921;51.332;12.410;2022-08-19T00:23:39;5.03;;;3.35;;
55601;SDS011;59921;51.332;12.410;2022-08-19T00:26:06;4.70;;;3.53;;
55601;SDS011;59921;51.332;12.410;2022-08-19T00:28:33;4.45;;;3.30;;
55601;SDS011;59921;51.332;12.410;2022-08-19T00:31:01;5.13;;;3.50;;
55601;SDS011;59921;51.332;12.410;2022-08-19T00:33:28;5.03;;;3.40;;
55601;SDS011;59921;51.332;12.410;2022-08-19T00:35:57;4.72;;;3.30;;
55601;SDS011;59921;51.332;12.410;2022-08-19T00:38:23;5.60;;;3.20;;
55601;SDS011;59921;51.332;12.410;2022-08-19T00:40:49;5.80;;;3.33;;
55601;SDS011;59921;51.332;12.410;2022-08-19T00:43:18;4.20;;;3.05;;
55601;SDS011;59921;51.332;12.410;2022-08-19T00:45:46;4.35;;;3.00;;
55601;SDS011;59921;51.332;12.410;2022-08-19T00:48:12;4.55;;;3.50;;
55601;SDS011;59921;51.332;12.410;2022-08-19T00:50:39;4.90;;;3.50;;
55601;SDS011;59921;51.332;12.410;2022-08-19T00:53:08;4.85;;;3.45;;
55601;SDS011;59921;51.332;12.410;2022-08-19T00:55:35;4.05;;;2.90;;
55601;SDS011;59921;51.332;12.410;2022-08-19T00:58:07;4.72;;;3.42;;
55601;SDS011;59921;51.332;12.410;2022-08-19T01:00:35;4.45;;;3.15;;
55601;SDS011;59921;51.332;12.410;2022-08-19T01:03:05;4.82;;;3.20;;
55601;SDS011;59921;51.332;12.410;2022-08-19T01:05:34;5.07;;;3.33;;
55601;SDS011;59921;51.332;12.410;2022-08-19T01:08:02;4.75;;;3.33;;
55601;SDS011;59921;51.332;12.410;2022-08-19T01:10:31;5.13;;;3.50;;
55601;SDS011;59921;51.332;12.410;2022-08-19T01:12:59;5.10;;;3.38;;
55601;SDS011;59921;51.332;12.410;2022-08-19T01:15:32;5.70;;;3.58;;
55601;SDS011;59921;51.332;12.410;2022-08-19T01:18:07;4.93;;;3.40;;
55601;SDS011;59921;51.332;12.410;2022-08-19T01:20:34;5.55;;;3.55;;
55601;SDS011;59921;51.332;12.410;2022-08-19T01:23:00;4.53;;;3.42;;
55601;SDS011;59921;51.332;12.410;2022-08-19T01:25:28;5.18;;;3.40;;
55601;SDS011;59921;51.332;12.410;2022-08-19T01:28:02;5.20;;;3.28;;
55601;SDS011;59921;51.332;12.410;2022-08-19T01:30:29;4.90;;;3.47;;
55601;SDS011;59921;51.332;12.410;2022-08-19T01:32:58;4.93;;;3.50;;
55601;SDS011;59921;51.332;12.410;2022-08-19T01:35:25;4.43;;;3.47;;
55601;SDS011;59921;51.332;12.410;2022-08-19T01:37:55;4.50;;;3.35;;
55601;SDS011;59921;51.332;12.410;2022-08-19T01:40:23;4.53;;;2.97;;
55601;SDS011;59921;51.332;12.410;2022-08-19T01:42:51;5.28;;;3.47;;
55601;SDS011;59921;51.332;12.410;2022-08-19T01:45:18;4.38;;;3.25;;
55601;SDS011;59921;51.332;12.410;2022-08-19T01:47:44;5.07;;;3.45;;
55601;SDS011;59921;51.332;12.410;2022-08-19T01:50:11;4.88;;;3.45;;
55601;SDS011;59921;51.332;12.410;2022-08-19T01:52:38;5.45;;;3.38;;
55601;SDS011;59921;51.332;12.410;2022-08-19T01:55:07;4.55;;;3.50;;
55601;SDS011;59921;51.332;12.410;2022-08-19T01:57:34;4.55;;;3.50;;
55601;SDS011;59921;51.332;12.410;2022-08-19T02:00:01;4.40;;;3.30;;
55601;SDS011;59921;51.332;12.410;2022-08-19T02:02:30;4.88;;;3.20;;
55601;SDS011;59921;51.332;12.410;2022-08-19T02:04:56;4.70;;;3.35;;
55601;SDS011;59921;51.332;12.410;2022-08-19T02:07:22;5.05;;;3.63;;
55601;SDS011;59921;51.332;12.410;2022-08-19T02:09:47;4.90;;;3.60;;
55601;SDS011;59921;51.332;12.410;2022-08-19T02:12:13;4.70;;;3.50;;
55601;SDS011;59921;51.332;12.410;2022-08-19T02:14:39;4.20;;;2.90;;
55601;SDS011;59921;51.332;12.410;2022-08-19T02:17:05;5.68;;;3.50;;
55601;SDS011;59921;51.332;12.410;2022-08-19T02:19:31;4.95;;;3.47;;
55601;SDS011;59921;51.332;12.410;2022-08-19T02:21:58;4.45;;;3.30;;
55601;SDS011;59921;51.332;12.410;2022-08-19T02:24:24;4.00;;;3.10;;
55601;SDS011;59921;51.332;12.410;2022-08-19T02:26:49;5.03;;;3.50;;
55601;SDS011;59921;51.332;12.410;2022-08-19T02:29:16;4.85;;;3.55;;
55601;SDS011;59921;51.332;12.410;2022-08-19T02:31:41;5.00;;;3.63;;
55601;SDS011;59921;51.332;12.410;2022-08-19T02:34:07;4.68;;;3.22;;
55601;SDS011;59921;51.332;12.410;2022-08-19T02:36:33;5.28;;;3.35;;
55601;SDS011;59921;51.332;12.410;2022-08-19T02:38:59;4.90;;;3.40;;
55601;SDS011;59921;51.332;12.410;2022-08-19T02:41:26;4.70;;;3.25;;
55601;SDS011;59921;51.332;12.410;2022-08-19T02:43:57;4.70;;;3.45;;
55601;SDS011;59921;51.332;12.410;2022-08-19T02:46:27;4.97;;;3.42;;
55601;SDS011;59921;51.332;12.410;2022-08-19T02:48:56;4.40;;;3.08;;
55601;SDS011;59921;51.332;12.410;2022-08-19T02:51:27;4.10;;;3.00;;
55601;SDS011;59921;51.332;12.410;2022-08-19T02:53:55;4.40;;;3.40;;
55601;SDS011;59921;51.332;12.410;2022-08-19T02:56:21;4.70;;;3.15;;
55601;SDS011;59921;51.332;12.410;2022-08-19T02:58:49;4.53;;;3.30;;
55601;SDS011;59921;51.332;12.410;2022-08-19T03:01:22;5.03;;;3.47;;
55601;SDS011;59921;51.332;12.410;2022-08-19T03:03:51;5.30;;;3.78;;
55601;SDS011;59921;51.332;12.410;2022-08-19T03:06:17;5.55;;;3.25;;
55601;SDS011;59921;51.332;12.410;2022-08-19T03:08:44;5.35;;;3.88;;
55601;SDS011;59921;51.332;12.410;2022-08-19T03:11:29;5.13;;;3.40;;
55601;SDS011;59921;51.332;12.410;2022-08-19T03:13:57;4.72;;;3.30;;
55601;SDS011;59921;51.332;12.410;2022-08-19T03:16:24;4.18;;;3.35;;
55601;SDS011;59921;51.332;12.410;2022-08-19T03:18:52;4.78;;;3.22;;
55601;SDS011;59921;51.332;12.410;2022-08-19T03:21:19;4.15;;;2.95;;
55601;SDS011;59921;51.332;12.410;2022-08-19T03:23:49;4.82;;;3.50;;
55601;SDS011;59921;51.332;12.410;2022-08-19T03:26:18;3.97;;;3.15;;
55601;SDS011;59921;51.332;12.410;2022-08-19T03:28:44;5.25;;;3.30;;
55601;SDS011;59921;51.332;12.410;2022-08-19T03:31:16;4.95;;;3.40;;
55601;SDS011;59921;51.332;12.410;2022-08-19T03:33:43;4.38;;;3.08;;
55601;SDS011;59921;51.332;12.410;2022-08-19T03:38:43;5.82;;;3.42;;
55601;SDS011;59921;51.332;12.410;2022-08-19T03:41:13;4.20;;;3.10;;
55601;SDS011;59921;51.332;12.410;2022-08-19T03:43:41;5.30;;;3.50;;
55601;SDS011;59921;51.332;12.410;2022-08-19T03:46:10;4.05;;;3.10;;
55601;SDS011;59921;51.332;12.410;2022-08-19T03:48:38;4.68;;;3.45;;
55601;SDS011;59921;51.332;12.410;2022-08-19T03:51:04;4.82;;;3.17;;
55601;SDS011;59921;51.332;12.410;2022-08-19T03:53:31;5.00;;;3.75;;
55601;SDS011;59921;51.332;12.410;2022-08-19T03:55:58;4.65;;;3.28;;
55601;SDS011;59921;51.332;12.410;2022-08-19T03:58:27;5.15;;;3.38;;
55601;SDS011;59921;51.332;12.410;2022-08-19T04:00:57;4.35;;;3.20;;
55601;SDS011;59921;51.332;12.410;2022-08-19T04:03:23;4.30;;;3.20;;
55601;SDS011;59921;51.332;12.410;2022-08-19T04:05:51;4.53;;;3.33;;
55601;SDS011;59921;51.332;12.410;2022-08-19T04:08:16;4.13;;;3.28;;
55601;SDS011;59921;51.332;12.410;2022-08-19T04:10:45;5.80;;;2.90;;
55601;SDS011;59921;51.332;12.410;2022-08-19T04:13:14;5.10;;;3.20;;
55601;SDS011;59921;51.332;12.410;2022-08-19T04:15:43;4.60;;;3.20;;
55601;SDS011;59921;51.332;12.410;2022-08-19T04:18:12;4.38;;;3.10;;
55601;SDS011;59921;51.332;12.410;2022-08-19T04:20:44;4.93;;;3.40;;
55601;SDS011;59921;51.332;12.410;2022-08-19T04:23:12;3.97;;;2.88;;
55601;SDS011;59921;51.332;12.410;2022-08-19T04:25:39;3.78;;;3.13;;
55601;SDS011;59921;51.332;12.410;2022-08-19T04:28:06;4.47;;;3.28;;
55601;SDS011;59921;51.332;12.410;2022-08-19T04:30:45;4.15;;;3.13;;
55601;SDS011;59921;51.332;12.410;2022-08-19T04:33:13;5.32;;;3.45;;
55601;SDS011;59921;51.332;12.410;2022-08-19T04:35:41;4.22;;;3.33;;
55601;SDS011;59921;51.332;12.410;2022-08-19T04:38:09;4.72;;;3.33;;
55601;SDS011;59921;51.332;12.410;2022-08-19T04:40:42;4.80;;;3.08;;
55601;SDS011;59921;51.332;12.410;2022-08-19T04:43:31;4.35;;;3.08;;
55601;SDS011;59921;51.332;12.410;2022-08-19T04:45:58;4.60;;;3.50;;
55601;SDS011;59921;51.332;12.410;2022-08-19T04:48:29;5.20;;;3.33;;
55601;SDS011;59921;51.332;12.410;2022-08-19T04:50:55;4.45;;;3.15;;
55601;SDS011;59921;51.332;12.410;2022-08-19T04:53:28;5.00;;;3.13;;
55601;SDS011;59921;51.332;12.410;2022-08-19T04:55:56;4.10;;;3.20;;
55601;SDS011;59921;51.332;12.410;2022-08-19T04:58:26;4.47;;;3.22;;
55601;SDS011;59921;51.332;12.410;2022-08-19T05:00:52;4.40;;;3.25;;
55601;SDS011;59921;51.332;12.410;2022-08-19T05:03:18;4.32;;;3.00;;
55601;SDS011;59921;51.332;12.410;2022-08-19T05:05:44;4.28;;;3.28;;
55601;SDS011;59921;51.332;12.410;2022-08-19T05:08:13;3.92;;;3.00;;
55601;SDS011;59921;51.332;12.410;2022-08-19T05:10:44;4.43;;;3.30;;
55601;SDS011;59921;51.332;12.410;2022-08-19T05:13:10;4.10;;;3.10;;
55601;SDS011;59921;51.332;12.410;2022-08-19T05:15:36;4.82;;;3.30;;
55601;SDS011;59921;51.332;12.410;2022-08-19T05:18:01;4.15;;;3.15;;
55601;SDS011;59921;51.332;12.410;2022-08-19T05:23:29;5.18;;;3.20;;
55601;SDS011;59921;51.332;12.410;2022-08-19T05:25:55;4.45;;;3.20;;
55601;SDS011;59921;51.332;12.410;2022-08-19T05:28:20;5.18;;;3.58;;
55601;SDS011;59921;51.332;12.410;2022-08-19T05:30:46;4.97;;;3.25;;
55601;SDS011;59921;51.332;12.410;2022-08-19T05:33:13;4.18;;;3.10;;
55601;SDS011;59921;51.332;12.410;2022-08-19T05:35:39;4.85;;;3.20;;
55601;SDS011;59921;51.332;12.410;2022-08-19T05:38:06;6.20;;;3.35;;
55601;SDS011;59921;51.332;12.410;2022-08-19T05:40:34;4.72;;;3.30;;
55601;SDS011;59921;51.332;12.410;2022-08-19T05:43:01;4.25;;;3.33;;
55601;SDS011;59921;51.332;12.410;2022-08-19T05:45:28;5.00;;;3.17;;
55601;SDS011;59921;51.332;12.410;2022-08-19T05:47:54;4.82;;;3.38;;
55601;SDS011;59921;51.332;12.410;2022-08-19T05:50:20;4.70;;;3.67;;
55601;SDS011;59921;51.332;12.410;2022-08-19T05:52:46;4.93;;;3.60;;
55601;SDS011;59921;51.332;12.410;2022-08-19T05:55:11;4.47;;;3.13;;
55601;SDS011;59921;51.332;12.410;2022-08-19T05:57:37;4.70;;;3.03;;
55601;SDS011;59921;51.332;12.410;2022-08-19T06:00:05;5.13;;;3.20;;
55601;SDS011;59921;51.332;12.410;2022-08-19T06:02:34;4.95;;;3.22;;
55601;SDS011;59921;51.332;12.410;2022-08-19T06:05:00;4.20;;;3.17;;
55601;SDS011;59921;51.332;12.410;2022-08-19T06:07:27;4.75;;;3.42;;
55601;SDS011;59921;51.332;12.410;2022-08-19T06:09:54;3.95;;;3.20;;
55601;SDS011;59921;51.332;12.410;2022-08-19T06:12:20;4.40;;;3.30;;
55601;SDS011;59921;51.332;12.410;2022-08-19T06:14:55;4.60;;;3.45;;
55601;SDS011;59921;51.332;12.410;2022-08-19T06:17:21;4.15;;;3.03;;
55601;SDS011;59921;51.332;12.410;2022-08-19T06:19:49;4.82;;;3.53;;
55601;SDS011;59921;51.332;12.410;2022-08-19T06:22:15;4.53;;;3.25;;
55601;SDS011;59921;51.332;12.410;2022-08-19T06:24:41;4.78;;;3.70;;
55601;SDS011;59921;51.332;12.410;2022-08-19T06:27:07;5.47;;;3.50;;
55601;SDS011;59921;51.332;12.410;2022-08-19T06:29:33;4.47;;;3.42;;
55601;SDS011;59921;51.332;12.410;2022-08-19T06:31:59;5.13;;;3.78;;
55601;SDS011;59921;51.332;12.410;2022-08-19T06:34:29;5.15;;;3.35;;
55601;SDS011;59921;51.332;12.410;2022-08-19T06:36:57;4.18;;;3.47;;
55601;SDS011;59921;51.332;12.410;2022-08-19T06:39:27;4.78;;;3.40;;
55601;SDS011;59921;51.332;12.410;2022-08-19T06:41:56;5.13;;;3.53;;
55601;SDS011;59921;51.332;12.410;2022-08-19T06:44:24;6.32;;;3.83;;
55601;SDS011;59921;51.332;12.410;2022-08-19T06:46:53;6.18;;;3.70;;
55601;SDS011;59921;51.332;12.410;2022-08-19T06:49:19;4.97;;;3.75;;
55601;SDS011;59921;51.332;12.410;2022-08-19T06:51:46;5.20;;;3.70;;
55601;SDS011;59921;51.332;12.410;2022-08-19T06:54:13;4.88;;;3.72;;
55601;SDS011;59921;51.332;12.410;2022-08-19T06:56:39;4.63;;;3.75;;
55601;SDS011;59921;51.332;12.410;2022-08-19T06:59:15;4.93;;;3.95;;
55601;SDS011;59921;51.332;12.410;2022-08-19T07:01:45;4.93;;;4.00;;
55601;SDS011;59921;51.332;12.410;2022-08-19T07:04:16;4.78;;;3.83;;
55601;SDS011;59921;51.332;12.410;2022-08-19T07:06:47;4.88;;;3.58;;
55601;SDS011;59921;51.332;12.410;2022-08-19T07:09:14;4.68;;;3.55;;
55601;SDS011;59921;51.332;12.410;2022-08-19T07:11:59;5.18;;;4.07;;
55601;SDS011;59921;51.332;12.410;2022-08-19T07:16:53;5.70;;;4.00;;
55601;SDS011;59921;51.332;12.410;2022-08-19T07:19:21;5.95;;;4.07;;
55601;SDS011;59921;51.332;12.410;2022-08-19T07:21:48;5.45;;;4.00;;
55601;SDS011;59921;51.332;12.410;2022-08-19T07:24:18;5.75;;;4.20;;
55601;SDS011;59921;51.332;12.410;2022-08-19T07:26:44;4.55;;;3.40;;
55601;SDS011;59921;51.332;12.410;2022-08-19T07:29:10;5.22;;;3.88;;
55601;SDS011;59921;51.332;12.410;2022-08-19T07:31:36;5.68;;;4.38;;
55601;SDS011;59921;51.332;12.410;2022-08-19T07:34:03;4.80;;;3.53;;
55601;SDS011;59921;51.332;12.410;2022-08-19T07:36:32;5.25;;;3.30;;
55601;SDS011;59921;51.332;12.410;2022-08-19T07:38:59;4.93;;;3.65;;
55601;SDS011;59921;51.332;12.410;2022-08-19T07:41:28;5.30;;;3.78;;
55601;SDS011;59921;51.332;12.410;2022-08-19T07:43:57;5.05;;;3.60;;
55601;SDS011;59921;51.332;12.410;2022-08-19T07:46:24;5.30;;;3.92;;
55601;SDS011;59921;51.332;12.410;2022-08-19T07:48:49;5.72;;;3.90;;
55601;SDS011;59921;51.332;12.410;2022-08-19T07:51:21;5.30;;;4.05;;
55601;SDS011;59921;51.332;12.410;2022-08-19T07:53:47;6.50;;;4.20;;
55601;SDS011;59921;51.332;12.410;2022-08-19T07:56:15;5.50;;;3.92;;
55601;SDS011;59921;51.332;12.410;2022-08-19T07:58:43;5.53;;;3.78;;
55601;SDS011;59921;51.332;12.410;2022-08-19T08:01:15;5.15;;;3.60;;
55601;SDS011;59921;51.332;12.410;2022-08-19T08:03:44;5.50;;;3.72;;
55601;SDS011;59921;51.332;12.410;2022-08-19T08:06:28;5.53;;;3.80;;
55601;SDS011;59921;51.332;12.410;2022-08-19T08:09:13;6.03;;;4.25;;
55601;SDS011;59921;51.332;12.410;2022-08-19T08:11:54;5.45;;;3.90;;
55601;SDS011;59921;51.332;12.410;2022-08-19T08:14:48;5.10;;;3.60;;
55601;SDS011;59921;51.332;12.410;2022-08-19T08:17:16;5.57;;;3.97;;
55601;SDS011;59921;51.332;12.410;2022-08-19T08:19:46;5.40;;;3.95;;
55601;SDS011;59921;51.332;12.410;2022-08-19T08:22:14;5.97;;;4.03;;
55601;SDS011;59921;51.332;12.410;2022-08-19T08:25:03;5.30;;;4.07;;
55601;SDS011;59921;51.332;12.410;2022-08-19T08:27:38;5.78;;;3.90;;
55601;SDS011;59921;51.332;12.410;2022-08-19T08:30:12;5.57;;;3.50;;
55601;SDS011;59921;51.332;12.410;2022-08-19T08:32:40;5.20;;;3.70;;
55601;SDS011;59921;51.332;12.410;2022-08-19T08:35:08;6.20;;;4.10;;
55601;SDS011;59921;51.332;12.410;2022-08-19T08:37:36;5.18;;;4.00;;
55601;SDS011;59921;51.332;12.410;2022-08-19T08:40:06;6.05;;;4.22;;
55601;SDS011;59921;51.332;12.410;2022-08-19T08:42:40;5.85;;;4.10;;
55601;SDS011;59921;51.332;12.410;2022-08-19T08:45:14;4.97;;;3.65;;
55601;SDS011;59921;51.332;12.410;2022-08-19T08:47:44;6.00;;;3.97;;
55601;SDS011;59921;51.332;12.410;2022-08-19T08:50:21;6.07;;;4.00;;
55601;SDS011;59921;51.332;12.410;2022-08-19T08:53:21;5.10;;;3.63;;
55601;SDS011;59921;51.332;12.410;2022-08-19T08:55:47;5.05;;;3.47;;
55601;SDS011;59921;51.332;12.410;2022-08-19T08:58:15;5.18;;;3.67;;
55601;SDS011;59921;51.332;12.410;2022-08-19T09:00:49;5.40;;;4.22;;
55601;SDS011;59921;51.332;12.410;2022-08-19T09:03:22;4.88;;;3.28;;
55601;SDS011;59921;51.332;12.410;2022-08-19T09:08:23;5.82;;;3.85;;
55601;SDS011;59921;51.332;12.410;2022-08-19T09:10:59;6.38;;;3.95;;
55601;SDS011;59921;51.332;12.410;2022-08-19T09:16:33;5.93;;;3.87;;
55601;SDS011;59921;51.332;12.410;2022-08-19T09:19:03;5.78;;;3.67;;
55601;SDS011;59921;51.332;12.410;2022-08-19T09:21:31;4.93;;;3.80;;
55601;SDS011;59921;51.332;12.410;2022-08-19T09:23:57;4.60;;;3.50;;
55601;SDS011;59921;51.332;12.410;2022-08-19T09:26:24;6.00;;;3.97;;
55601;SDS011;59921;51.332;12.410;2022-08-19T09:28:51;5.80;;;4.18;;
55601;SDS011;59921;51.332;12.410;2022-08-19T09:31:24;6.95;;;4.18;;
55601;SDS011;59921;51.332;12.410;2022-08-19T09:33:52;6.03;;;3.65;;
55601;SDS011;59921;51.332;12.410;2022-08-19T09:36:22;5.82;;;4.10;;
55601;SDS011;59921;51.332;12.410;2022-08-19T09:38:50;4.78;;;3.90;;
55601;SDS011;59921;51.332;12.410;2022-08-19T09:41:21;5.15;;;3.63;;
55601;SDS011;59921;51.332;12.410;2022-08-19T09:43:49;6.03;;;3.80;;
55601;SDS011;59921;51.332;12.410;2022-08-19T09:46:17;5.50;;;4.03;;
55601;SDS011;59921;51.332;12.410;2022-08-19T09:48:44;4.97;;;3.90;;
55601;SDS011;59921;51.332;12.410;2022-08-19T09:51:14;4.82;;;3.58;;
55601;SDS011;59921;51.332;12.410;2022-08-19T09:53:42;5.18;;;3.55;;
55601;SDS011;59921;51.332;12.410;2022-08-19T09:56:09;6.05;;;3.92;;
55601;SDS011;59921;51.332;12.410;2022-08-19T09:58:35;4.78;;;3.35;;
55601;SDS011;59921;51.332;12.410;2022-08-19T10:01:02;4.88;;;3.58;;
55601;SDS011;59921;51.332;12.410;2022-08-19T10:03:29;5.18;;;3.55;;
55601;SDS011;59921;51.332;12.410;2022-08-19T10:05:56;7.45;;;4.15;;
55601;SDS011;59921;51.332;12.410;2022-08-19T10:08:25;4.60;;;3.65;;
55601;SDS011;59921;51.332;12.410;2022-08-19T10:10:52;5.60;;;3.60;;
55601;SDS011;59921;51.332;12.410;2022-08-19T10:13:20;5.55;;;3.90;;
55601;SDS011;59921;51.332;12.410;2022-08-19T10:15:48;5.95;;;3.70;;
55601;SDS011;59921;51.332;12.410;2022-08-19T10:18:16;4.97;;;4.05;;
55601;SDS011;59921;51.332;12.410;2022-08-19T10:20:43;6.07;;;4.07;;
55601;SDS011;59921;51.332;12.410;2022-08-19T10:23:10;5.88;;;4.03;;
55601;SDS011;59921;51.332;12.410;2022-08-19T10:25:36;4.60;;;3.50;;
55601;SDS011;59921;51.332;12.410;2022-08-19T10:28:03;4.75;;;3.67;;
55601;SDS011;59921;51.332;12.410;2022-08-19T10:30:29;5.05;;;3.75;;
55601;SDS011;59921;51.332;12.410;2022-08-19T10:32:55;6.00;;;4.03;;
55601;SDS011;59921;51.332;12.410;2022-08-19T10:35:21;5.82;;;3.92;;
55601;SDS011;59921;51.332;12.410;2022-08-19T10:37:46;5.05;;;3.60;;
55601;SDS011;59921;51.332;12.410;2022-08-19T10:40:12;5.88;;;4.00;;
55601;SDS011;59921;51.332;12.410;2022-08-19T10:42:37;5.07;;;3.97;;
55601;SDS011;59921;51.332;12.410;2022-08-19T10:45:03;5.85;;;4.00;;
55601;SDS011;59921;51.332;12.410;2022-08-19T10:47:31;4.72;;;3.75;;
55601;SDS011;59921;51.332;12.410;2022-08-19T10:49:58;6.10;;;4.22;;
55601;SDS011;59921;51.332;12.410;2022-08-19T10:52:44;6.28;;;3.92;;
55601;SDS011;59921;51.332;12.410;2022-08-19T10:55:11;5.40;;;3.90;;
55601;SDS011;59921;51.332;12.410;2022-08-19T10:57:54;4.82;;;3.65;;
55601;SDS011;59921;51.332;12.410;2022-08-19T11:00:20;4.88;;;3.60;;
55601;SDS011;59921;51.332;12.410;2022-08-19T11:02:47;5.18;;;3.80;;
55601;SDS011;59921;51.332;12.410;2022-08-19T11:05:13;4.50;;;3.40;;
55601;SDS011;59921;51.332;12.410;2022-08-19T11:07:40;5.60;;;4.00;;
55601;SDS011;59921;51.332;12.410;2022-08-19T11:10:08;4.10;;;3.40;;
55601;SDS011;59921;51.332;12.410;2022-08-19T11:12:38;5.30;;;4.00;;
55601;SDS011;59921;51.332;12.410;2022-08-19T11:15:08;5.40;;;3.75;;
55601;SDS011;59921;51.332;12.410;2022-08-19T11:17:36;4.32;;;3.40;;
55601;SDS011;59921;51.332;12.410;2022-08-19T11:20:09;5.85;;;3.70;;
55601;SDS011;59921;51.332;12.410;2022-08-19T11:22:41;4.72;;;3.30;;
55601;SDS011;59921;51.332;12.410;2022-08-19T11:25:11;4.40;;;3.30;;
55601;SDS011;59921;51.332;12.410;2022-08-19T11:27:37;3.90;;;3.13;;
55601;SDS011;59921;51.332;12.410;2022-08-19T11:30:07;6.35;;;3.47;;
55601;SDS011;59921;51.332;12.410;2022-08-19T11:32:33;6.43;;;4.40;;
55601;SDS011;59921;51.332;12.410;2022-08-19T11:34:59;5.03;;;3.45;;
55601;SDS011;59921;51.332;12.410;2022-08-19T11:37:25;4.55;;;3.28;;
55601;SDS011;59921;51.332;12.410;2022-08-19T11:39:51;5.22;;;3.65;;
55601;SDS011;59921;51.332;12.410;2022-08-19T11:42:17;4.32;;;3.22;;
55601;SDS011;59921;51.332;12.410;2022-08-19T11:45:01;5.43;;;3.47;;
55601;SDS011;59921;51.332;12.410;2022-08-19T11:47:28;4.50;;;3.28;;
55601;SDS011;59921;51.332;12.410;2022-08-19T11:49:55;5.22;;;3.40;;
55601;SDS011;59921;51.332;12.410;2022-08-19T11:52:21;5.30;;;3.63;;
55601;SDS011;59921;51.332;12.410;2022-08-19T11:54:47;5.15;;;3.35;;
55601;SDS011;59921;51.332;12.410;2022-08-19T11:57:12;3.92;;;3.20;;
55601;SDS011;59921;51.332;12.410;2022-08-19T11:59:42;4.82;;;3.50;;
55601;SDS011;59921;51.332;12.410;2022-08-19T12:02:12;5.60;;;3.40;;
55601;SDS011;59921;51.332;12.410;2022-08-19T12:04:40;4.97;;;3.53;;
55601;SDS011;59921;51.332;12.410;2022-08-19T12:07:06;3.65;;;3.13;;
55601;SDS011;59921;51.332;12.410;2022-08-19T12:09:31;4.88;;;3.30;;
55601;SDS011;59921;51.332;12.410;2022-08-19T12:11:59;5.40;;;3.33;;
55601;SDS011;59921;51.332;12.410;2022-08-19T12:14:26;5.03;;;3.22;;
55601;SDS011;59921;51.332;12.410;2022-08-19T12:16:53;4.53;;;3.30;;
55601;SDS011;59921;51.332;12.410;2022-08-19T12:19:18;3.92;;;3.00;;
55601;SDS011;59921;51.332;12.410;2022-08-19T12:21:44;4.53;;;3.25;;
55601;SDS011;59921;51.332;12.410;2022-08-19T12:24:10;4.30;;;3.22;;
55601;SDS011;59921;51.332;12.410;2022-08-19T12:26:36;4.55;;;3.38;;
55601;SDS011;59921;51.332;12.410;2022-08-19T12:29:02;4.72;;;3.50;;
55601;SDS011;59921;51.332;12.410;2022-08-19T12:31:29;5.05;;;3.20;;
55601;SDS011;59921;51.332;12.410;2022-08-19T12:33:55;4.63;;;3.50;;
55601;SDS011;59921;51.332;12.410;2022-08-19T12:36:21;4.10;;;2.88;;
55601;SDS011;59921;51.332;12.410;2022-08-19T12:38:48;4.78;;;3.17;;
55601;SDS011;59921;51.332;12.410;2022-08-19T12:41:14;4.95;;;3.28;;
55601;SDS011;59921;51.332;12.410;2022-08-19T12:43:42;5.03;;;3.67;;
55601;SDS011;59921;51.332;12.410;2022-08-19T12:46:08;3.47;;;2.80;;
55601;SDS011;59921;51.332;12.410;2022-08-19T12:48:34;4.28;;;3.28;;
55601;SDS011;59921;51.332;12.410;2022-08-19T12:51:05;4.68;;;3.05;;
55601;SDS011;59921;51.332;12.410;2022-08-19T12:53:33;5.38;;;3.58;;
55601;SDS011;59921;51.332;12.410;2022-08-19T12:55:59;4.45;;;3.20;;
55601;SDS011;59921;51.332;12.410;2022-08-19T12:58:25;3.90;;;2.92;;
55601;SDS011;59921;51.332;12.410;2022-08-19T13:00:51;4.05;;;2.95;;
55601;SDS011;59921;51.332;12.410;2022-08-19T13:03:16;4.50;;;3.33;;
55601;SDS011;59921;51.332;12.410;2022-08-19T13:05:42;4.05;;;2.83;;
55601;SDS011;59921;51.332;12.410;2022-08-19T13:08:08;4.28;;;2.80;;
55601;SDS011;59921;51.332;12.410;2022-08-19T13:10:34;4.20;;;3.05;;
55601;SDS011;59921;51.332;12.410;2022-08-19T13:13:05;3.65;;;2.80;;
55601;SDS011;59921;51.332;12.410;2022-08-19T13:15:40;4.57;;;3.28;;
55601;SDS011;59921;51.332;12.410;2022-08-19T13:18:08;4.28;;;3.05;;
55601;SDS011;59921;51.332;12.410;2022-08-19T13:20:36;3.80;;;2.70;;
55601;SDS011;59921;51.332;12.410;2022-08-19T13:23:02;4.82;;;3.00;;
55601;SDS011;59921;51.332;12.410;2022-08-19T13:25:29;4.15;;;2.90;;
55601;SDS011;59921;51.332;12.410;2022-08-19T13:27:54;5.57;;;3.22;;
55601;SDS011;59921;51.332;12.410;2022-08-19T13:30:20;4.20;;;2.72;;
55601;SDS011;59921;51.332;12.410;2022-08-19T13:33:05;4.47;;;3.00;;
55601;SDS011;59921;51.332;12.410;2022-08-19T13:35:40;4.32;;;2.92;;
55601;SDS011;59921;51.332;12.410;2022-08-19T13:38:14;3.50;;;2.90;;
55601;SDS011;59921;51.332;12.410;2022-08-19T13:40:45;4.47;;;3.22;;
55601;SDS011;59921;51.332;12.410;2022-08-19T13:43:12;3.97;;;2.78;;
55601;SDS011;59921;51.332;12.410;2022-08-19T13:45:39;3.95;;;2.95;;
55601;SDS011;59921;51.332;12.410;2022-08-19T13:48:05;3.70;;;2.78;;
55601;SDS011;59921;51.332;12.410;2022-08-19T13:50:35;4.07;;;2.80;;
55601;SDS011;59921;51.332;12.410;2022-08-19T13:53:06;3.50;;;2.92;;
55601;SDS011;59921;51.332;12.410;2022-08-19T13:55:32;4.03;;;3.00;;
55601;SDS011;59921;51.332;12.410;2022-08-19T13:57:58;4.03;;;2.80;;
55601;SDS011;59921;51.332;12.410;2022-08-19T14:00:27;3.60;;;2.70;;
55601;SDS011;59921;51.332;12.410;2022-08-19T14:02:56;3.72;;;2.83;;
55601;SDS011;59921;51.332;12.410;2022-08-19T14:05:23;3.70;;;2.80;;
55601;SDS011;59921;51.332;12.410;2022-08-19T14:07:49;4.05;;;3.20;;
55601;SDS011;59921;51.332;12.410;2022-08-19T14:10:15;5.05;;;3.00;;
55601;SDS011;59921;51.332;12.410;2022-08-19T14:12:42;4.93;;;3.13;;
55601;SDS011;59921;51.332;12.410;2022-08-19T14:15:08;5.45;;;2.72;;
55601;SDS011;59921;51.332;12.410;2022-08-19T14:17:36;3.92;;;2.97;;
55601;SDS011;59921;51.332;12.410;2022-08-19T14:20:04;3.88;;;2.65;;
55601;SDS011;59921;51.332;12.410;2022-08-19T14:22:33;4.50;;;3.20;;
55601;SDS011;59921;51.332;12.410;2022-08-19T14:25:07;3.95;;;2.67;;
55601;SDS011;59921;51.332;12.410;2022-08-19T14:27:35;4.38;;;2.83;;
55601;SDS011;59921;51.332;12.410;2022-08-19T14:30:02;5.47;;;3.20;;
55601;SDS011;59921;51.332;12.410;2022-08-19T14:32:29;3.58;;;2.90;;
55601;SDS011;59921;51.332;12.410;2022-08-19T14:34:55;4.00;;;3.10;;
55601;SDS011;59921;51.332;12.410;2022-08-19T14:37:20;3.60;;;2.78;;
55601;SDS011;59921;51.332;12.410;2022-08-19T14:39:47;3.40;;;2.80;;
55601;SDS011;59921;51.332;12.410;2022-08-19T14:42:13;3.45;;;2.50;;
55601;SDS011;59921;51.332;12.410;2022-08-19T14:44:42;4.13;;;3.10;;
55601;SDS011;59921;51.332;12.410;2022-08-19T14:47:07;3.70;;;2.75;;
55601;SDS011;59921;51.332;12.410;2022-08-19T14:49:34;4.28;;;2.67;;
55601;SDS011;59921;51.332;12.410;2022-08-19T14:52:00;3.88;;;2.80;;
55601;SDS011;59921;51.332;12.410;2022-08-19T14:54:26;4.25;;;2.97;;